sensor_id;sensor_type;location;lat;lon;timestamp;temperature;humidity
71088;SHT31;58747;50.674;4.616;2023-01-24T00:02:00;1.77;85.89
71088;SHT31;58747;50.674;4.616;2023-01-24T00:04:25;1.75;86.15
71088;SHT31;58747;50.674;4.616;2023-01-24T00:06:50;1.77;86.26
71088;SHT31;58747;50.674;4.616;2023-01-24T00:09:16;1.77;86.45
71088;SHT31;58747;50.674;4.616;2023-01-24T00:11:41;1.77;86.43
71088;SHT31;58747;50.674;4.616;2023-01-24T00:14:06;1.74;86.25
71088;SHT31;58747;50.674;4.616;2023-01-24T00:16:32;1.73;85.68
71088;SHT31;58747;50.674;4.616;2023-01-24T00:18:57;1.70;86.27
71088;SHT31;58747;50.674;4.616;2023-01-24T00:21:23;1.73;86.27
71088;SHT31;58747;50.674;4.616;2023-01-24T00:23:53;1.68;86.42
71088;SHT31;58747;50.674;4.616;2023-01-24T00:26:20;1.73;86.21
71088;SHT31;58747;50.674;4.616;2023-01-24T00:28:46;1.74;86.27
71088;SHT31;58747;50.674;4.616;2023-01-24T00:31:13;1.73;86.27
71088;SHT31;58747;50.674;4.616;2023-01-24T00:33:38;1.61;86.56
71088;SHT31;58747;50.674;4.616;2023-01-24T00:36:04;1.66;86.47
71088;SHT31;58747;50.674;4.616;2023-01-24T00:38:30;1.60;86.47
71088;SHT31;58747;50.674;4.616;2023-01-24T00:40:57;1.60;86.26
71088;SHT31;58747;50.674;4.616;2023-01-24T00:43:22;1.58;86.21
71088;SHT31;58747;50.674;4.616;2023-01-24T00:45:48;1.63;86.43
71088;SHT31;58747;50.674;4.616;2023-01-24T00:48:13;1.66;86.29
71088;SHT31;58747;50.674;4.616;2023-01-24T00:50:39;1.64;86.33
71088;SHT31;58747;50.674;4.616;2023-01-24T00:53:04;1.60;86.62
71088;SHT31;58747;50.674;4.616;2023-01-24T00:55:30;1.67;86.65
71088;SHT31;58747;50.674;4.616;2023-01-24T00:57:56;1.64;86.77
71088;SHT31;58747;50.674;4.616;2023-01-24T01:00:22;1.64;87.19
71088;SHT31;58747;50.674;4.616;2023-01-24T01:02:48;1.66;86.88
71088;SHT31;58747;50.674;4.616;2023-01-24T01:05:14;1.70;86.68
71088;SHT31;58747;50.674;4.616;2023-01-24T01:07:40;1.71;86.32
71088;SHT31;58747;50.674;4.616;2023-01-24T01:10:05;1.68;86.35
71088;SHT31;58747;50.674;4.616;2023-01-24T01:12:31;1.68;86.36
71088;SHT31;58747;50.674;4.616;2023-01-24T01:14:56;1.73;86.53
71088;SHT31;58747;50.674;4.616;2023-01-24T01:17:22;1.74;86.39
71088;SHT31;58747;50.674;4.616;2023-01-24T01:19:51;1.77;86.36
71088;SHT31;58747;50.674;4.616;2023-01-24T01:22:17;1.77;86.34
71088;SHT31;58747;50.674;4.616;2023-01-24T01:24:42;1.74;86.35
71088;SHT31;58747;50.674;4.616;2023-01-24T01:27:07;1.64;86.18
71088;SHT31;58747;50.674;4.616;2023-01-24T01:29:33;1.68;86.65
71088;SHT31;58747;50.674;4.616;2023-01-24T01:31:59;1.71;86.50
71088;SHT31;58747;50.674;4.616;2023-01-24T01:34:24;1.74;86.57
71088;SHT31;58747;50.674;4.616;2023-01-24T01:36:49;1.71;86.53
71088;SHT31;58747;50.674;4.616;2023-01-24T01:39:15;1.79;86.18
71088;SHT31;58747;50.674;4.616;2023-01-24T01:41:40;1.85;86.24
71088;SHT31;58747;50.674;4.616;2023-01-24T01:44:19;1.81;86.38
71088;SHT31;58747;50.674;4.616;2023-01-24T01:47:06;1.81;85.94
71088;SHT31;58747;50.674;4.616;2023-01-24T01:49:39;1.74;86.42
71088;SHT31;58747;50.674;4.616;2023-01-24T01:52:07;1.81;86.23
71088;SHT31;58747;50.674;4.616;2023-01-24T01:54:38;1.75;85.87
71088;SHT31;58747;50.674;4.616;2023-01-24T01:57:09;1.77;86.06
71088;SHT31;58747;50.674;4.616;2023-01-24T01:59:39;1.77;86.60
71088;SHT31;58747;50.674;4.616;2023-01-24T02:02:07;1.77;86.49
71088;SHT31;58747;50.674;4.616;2023-01-24T02:04:35;1.75;86.08
71088;SHT31;58747;50.674;4.616;2023-01-24T02:07:15;1.73;86.03
71088;SHT31;58747;50.674;4.616;2023-01-24T02:09:44;1.77;86.33
71088;SHT31;58747;50.674;4.616;2023-01-24T02:12:15;1.81;86.01
71088;SHT31;58747;50.674;4.616;2023-01-24T02:14:44;1.81;86.01
71088;SHT31;58747;50.674;4.616;2023-01-24T02:17:30;1.79;86.42
71088;SHT31;58747;50.674;4.616;2023-01-24T02:25:22;1.81;85.87
71088;SHT31;58747;50.674;4.616;2023-01-24T02:27:49;1.82;86.41
71088;SHT31;58747;50.674;4.616;2023-01-24T02:30:15;1.85;85.94
71088;SHT31;58747;50.674;4.616;2023-01-24T02:32:40;1.87;86.03
71088;SHT31;58747;50.674;4.616;2023-01-24T02:35:06;1.84;86.41
71088;SHT31;58747;50.674;4.616;2023-01-24T02:37:34;1.91;85.93
71088;SHT31;58747;50.674;4.616;2023-01-24T02:40:07;1.85;85.86
71088;SHT31;58747;50.674;4.616;2023-01-24T02:42:36;1.89;85.97
71088;SHT31;58747;50.674;4.616;2023-01-24T02:45:09;1.87;86.05
71088;SHT31;58747;50.674;4.616;2023-01-24T02:47:47;1.84;85.60
71088;SHT31;58747;50.674;4.616;2023-01-24T02:50:13;1.81;86.02
71088;SHT31;58747;50.674;4.616;2023-01-24T02:52:38;1.82;85.90
71088;SHT31;58747;50.674;4.616;2023-01-24T02:55:22;1.95;86.01
71088;SHT31;58747;50.674;4.616;2023-01-24T02:57:48;1.88;86.01
71088;SHT31;58747;50.674;4.616;2023-01-24T03:00:40;1.85;86.38
71088;SHT31;58747;50.674;4.616;2023-01-24T03:03:07;1.84;86.54
71088;SHT31;58747;50.674;4.616;2023-01-24T03:05:33;1.78;86.93
71088;SHT31;58747;50.674;4.616;2023-01-24T03:08:12;1.87;86.39
71088;SHT31;58747;50.674;4.616;2023-01-24T03:10:37;1.87;86.36
71088;SHT31;58747;50.674;4.616;2023-01-24T03:13:03;1.88;86.36
71088;SHT31;58747;50.674;4.616;2023-01-24T03:15:47;1.93;86.34
71088;SHT31;58747;50.674;4.616;2023-01-24T03:18:30;1.89;86.10
71088;SHT31;58747;50.674;4.616;2023-01-24T03:21:14;1.88;86.63
71088;SHT31;58747;50.674;4.616;2023-01-24T03:23:58;1.93;86.36
71088;SHT31;58747;50.674;4.616;2023-01-24T03:26:42;1.95;86.52
71088;SHT31;58747;50.674;4.616;2023-01-24T03:29:26;1.89;86.11
71088;SHT31;58747;50.674;4.616;2023-01-24T03:32:10;1.85;86.57
71088;SHT31;58747;50.674;4.616;2023-01-24T03:34:54;1.89;86.37
71088;SHT31;58747;50.674;4.616;2023-01-24T03:37:23;1.87;86.16
71088;SHT31;58747;50.674;4.616;2023-01-24T03:40:12;1.85;86.17
71088;SHT31;58747;50.674;4.616;2023-01-24T03:42:38;1.87;86.02
71088;SHT31;58747;50.674;4.616;2023-01-24T03:45:54;1.81;86.00
71088;SHT31;58747;50.674;4.616;2023-01-24T03:48:03;1.84;86.34
71088;SHT31;58747;50.674;4.616;2023-01-24T03:50:33;1.87;86.42
71088;SHT31;58747;50.674;4.616;2023-01-24T03:53:18;1.85;86.18
71088;SHT31;58747;50.674;4.616;2023-01-24T03:55:44;1.84;86.30
71088;SHT31;58747;50.674;4.616;2023-01-24T03:58:10;1.87;86.24
71088;SHT31;58747;50.674;4.616;2023-01-24T04:00:38;1.89;86.37
71088;SHT31;58747;50.674;4.616;2023-01-24T04:03:04;1.91;86.22
71088;SHT31;58747;50.674;4.616;2023-01-24T04:05:29;1.88;85.99
71088;SHT31;58747;50.674;4.616;2023-01-24T04:07:55;1.91;86.32
71088;SHT31;58747;50.674;4.616;2023-01-24T04:10:21;1.82;86.37
71088;SHT31;58747;50.674;4.616;2023-01-24T04:12:47;1.89;86.21
71088;SHT31;58747;50.674;4.616;2023-01-24T04:15:18;1.88;86.39
71088;SHT31;58747;50.674;4.616;2023-01-24T04:17:44;1.93;86.62
71088;SHT31;58747;50.674;4.616;2023-01-24T04:20:10;1.89;86.00
71088;SHT31;58747;50.674;4.616;2023-01-24T04:22:35;1.85;85.83
71088;SHT31;58747;50.674;4.616;2023-01-24T04:25:00;1.84;86.02
71088;SHT31;58747;50.674;4.616;2023-01-24T04:27:26;1.91;86.20
71088;SHT31;58747;50.674;4.616;2023-01-24T04:29:51;1.91;86.04
71088;SHT31;58747;50.674;4.616;2023-01-24T04:32:16;1.82;86.51
71088;SHT31;58747;50.674;4.616;2023-01-24T04:34:42;1.91;86.07
71088;SHT31;58747;50.674;4.616;2023-01-24T04:37:07;1.94;86.06
71088;SHT31;58747;50.674;4.616;2023-01-24T04:39:32;1.93;86.25
71088;SHT31;58747;50.674;4.616;2023-01-24T04:41:58;1.93;85.79
71088;SHT31;58747;50.674;4.616;2023-01-24T04:44:23;1.93;85.52
71088;SHT31;58747;50.674;4.616;2023-01-24T04:46:48;1.93;85.92
71088;SHT31;58747;50.674;4.616;2023-01-24T04:49:14;1.91;85.89
71088;SHT31;58747;50.674;4.616;2023-01-24T04:51:39;1.89;85.91
71088;SHT31;58747;50.674;4.616;2023-01-24T04:54:09;1.95;85.70
71088;SHT31;58747;50.674;4.616;2023-01-24T04:56:35;1.89;85.92
71088;SHT31;58747;50.674;4.616;2023-01-24T04:59:00;1.89;85.84
71088;SHT31;58747;50.674;4.616;2023-01-24T05:01:26;1.87;86.08
71088;SHT31;58747;50.674;4.616;2023-01-24T05:03:51;1.89;86.38
71088;SHT31;58747;50.674;4.616;2023-01-24T05:06:23;1.88;86.04
71088;SHT31;58747;50.674;4.616;2023-01-24T05:08:49;1.87;86.04
71088;SHT31;58747;50.674;4.616;2023-01-24T05:11:14;1.84;86.26
71088;SHT31;58747;50.674;4.616;2023-01-24T05:13:39;1.82;86.29
71088;SHT31;58747;50.674;4.616;2023-01-24T05:16:05;1.82;86.47
71088;SHT31;58747;50.674;4.616;2023-01-24T05:18:30;1.79;86.21
71088;SHT31;58747;50.674;4.616;2023-01-24T05:20:55;1.79;86.40
71088;SHT31;58747;50.674;4.616;2023-01-24T05:23:28;1.81;86.37
71088;SHT31;58747;50.674;4.616;2023-01-24T05:25:58;1.88;86.15
71088;SHT31;58747;50.674;4.616;2023-01-24T05:28:23;1.91;85.74
71088;SHT31;58747;50.674;4.616;2023-01-24T05:30:48;1.85;86.02
71088;SHT31;58747;50.674;4.616;2023-01-24T05:33:14;1.85;86.52
71088;SHT31;58747;50.674;4.616;2023-01-24T05:35:39;1.85;86.26
71088;SHT31;58747;50.674;4.616;2023-01-24T05:38:05;1.87;86.58
71088;SHT31;58747;50.674;4.616;2023-01-24T05:40:31;1.82;86.44
71088;SHT31;58747;50.674;4.616;2023-01-24T05:42:56;1.84;86.24
71088;SHT31;58747;50.674;4.616;2023-01-24T05:45:21;1.82;86.27
71088;SHT31;58747;50.674;4.616;2023-01-24T05:47:47;1.81;86.70
71088;SHT31;58747;50.674;4.616;2023-01-24T05:50:12;1.85;86.18
71088;SHT31;58747;50.674;4.616;2023-01-24T05:52:37;1.93;86.32
71088;SHT31;58747;50.674;4.616;2023-01-24T05:55:03;1.88;86.00
71088;SHT31;58747;50.674;4.616;2023-01-24T05:57:28;1.85;86.43
71088;SHT31;58747;50.674;4.616;2023-01-24T05:59:54;1.84;86.60
71088;SHT31;58747;50.674;4.616;2023-01-24T06:02:19;1.85;86.39
71088;SHT31;58747;50.674;4.616;2023-01-24T06:04:44;1.85;86.25
71088;SHT31;58747;50.674;4.616;2023-01-24T06:07:10;1.79;86.23
71088;SHT31;58747;50.674;4.616;2023-01-24T06:09:35;1.82;86.54
71088;SHT31;58747;50.674;4.616;2023-01-24T06:12:01;1.78;86.59
71088;SHT31;58747;50.674;4.616;2023-01-24T06:14:26;1.78;86.08
71088;SHT31;58747;50.674;4.616;2023-01-24T06:16:51;1.74;86.26
71088;SHT31;58747;50.674;4.616;2023-01-24T06:19:17;1.75;86.40
71088;SHT31;58747;50.674;4.616;2023-01-24T06:21:47;1.81;86.60
71088;SHT31;58747;50.674;4.616;2023-01-24T06:24:23;1.81;86.60
71088;SHT31;58747;50.674;4.616;2023-01-24T06:26:50;1.79;86.62
71088;SHT31;58747;50.674;4.616;2023-01-24T06:29:17;1.84;86.20
71088;SHT31;58747;50.674;4.616;2023-01-24T06:37:21;1.81;86.39
71088;SHT31;58747;50.674;4.616;2023-01-24T06:39:52;1.84;86.57
71088;SHT31;58747;50.674;4.616;2023-01-24T06:42:19;1.81;86.68
71088;SHT31;58747;50.674;4.616;2023-01-24T06:44:46;1.79;86.29
71088;SHT31;58747;50.674;4.616;2023-01-24T06:47:11;1.74;85.82
71088;SHT31;58747;50.674;4.616;2023-01-24T06:49:38;1.75;86.06
71088;SHT31;58747;50.674;4.616;2023-01-24T06:52:03;1.77;86.21
71088;SHT31;58747;50.674;4.616;2023-01-24T06:54:29;1.68;86.11
71088;SHT31;58747;50.674;4.616;2023-01-24T06:56:54;1.70;86.27
71088;SHT31;58747;50.674;4.616;2023-01-24T06:59:20;1.71;86.86
71088;SHT31;58747;50.674;4.616;2023-01-24T07:01:50;1.73;86.69
71088;SHT31;58747;50.674;4.616;2023-01-24T07:04:16;1.77;86.63
71088;SHT31;58747;50.674;4.616;2023-01-24T07:06:42;1.79;86.34
71088;SHT31;58747;50.674;4.616;2023-01-24T07:09:08;1.74;86.67
71088;SHT31;58747;50.674;4.616;2023-01-24T07:11:33;1.75;86.58
71088;SHT31;58747;50.674;4.616;2023-01-24T07:13:59;1.77;86.54
71088;SHT31;58747;50.674;4.616;2023-01-24T07:16:24;1.79;85.94
71088;SHT31;58747;50.674;4.616;2023-01-24T07:18:49;1.77;85.88
71088;SHT31;58747;50.674;4.616;2023-01-24T07:21:15;1.63;86.23
71088;SHT31;58747;50.674;4.616;2023-01-24T07:23:48;1.63;86.29
71088;SHT31;58747;50.674;4.616;2023-01-24T07:26:14;1.57;86.26
71088;SHT31;58747;50.674;4.616;2023-01-24T07:28:40;1.66;85.96
71088;SHT31;58747;50.674;4.616;2023-01-24T07:31:06;1.63;86.33
71088;SHT31;58747;50.674;4.616;2023-01-24T07:33:32;1.61;86.57
71088;SHT31;58747;50.674;4.616;2023-01-24T07:35:58;1.61;86.29
71088;SHT31;58747;50.674;4.616;2023-01-24T07:38:23;1.67;86.44
71088;SHT31;58747;50.674;4.616;2023-01-24T07:40:49;1.70;85.58
71088;SHT31;58747;50.674;4.616;2023-01-24T07:43:14;1.85;87.46
71088;SHT31;58747;50.674;4.616;2023-01-24T07:45:39;1.84;85.90
71088;SHT31;58747;50.674;4.616;2023-01-24T07:48:06;1.73;85.94
71088;SHT31;58747;50.674;4.616;2023-01-24T07:50:34;1.70;86.08
71088;SHT31;58747;50.674;4.616;2023-01-24T07:53:00;1.75;86.30
71088;SHT31;58747;50.674;4.616;2023-01-24T07:55:26;1.75;86.06
71088;SHT31;58747;50.674;4.616;2023-01-24T07:57:51;1.74;85.72
71088;SHT31;58747;50.674;4.616;2023-01-24T08:00:17;1.73;85.84
71088;SHT31;58747;50.674;4.616;2023-01-24T08:02:44;1.67;86.22
71088;SHT31;58747;50.674;4.616;2023-01-24T08:05:10;1.61;86.30
71088;SHT31;58747;50.674;4.616;2023-01-24T08:07:36;1.67;86.30
71088;SHT31;58747;50.674;4.616;2023-01-24T08:10:01;1.58;85.94
71088;SHT31;58747;50.674;4.616;2023-01-24T08:12:27;1.54;86.38
71088;SHT31;58747;50.674;4.616;2023-01-24T08:14:52;1.50;85.96
71088;SHT31;58747;50.674;4.616;2023-01-24T08:17:17;1.49;86.10
71088;SHT31;58747;50.674;4.616;2023-01-24T08:19:43;1.54;86.25
71088;SHT31;58747;50.674;4.616;2023-01-24T08:22:09;1.61;86.04
71088;SHT31;58747;50.674;4.616;2023-01-24T08:24:34;1.60;85.99
71088;SHT31;58747;50.674;4.616;2023-01-24T08:27:01;1.57;85.68
71088;SHT31;58747;50.674;4.616;2023-01-24T08:29:26;1.57;85.60
71088;SHT31;58747;50.674;4.616;2023-01-24T08:31:52;1.53;85.73
71088;SHT31;58747;50.674;4.616;2023-01-24T08:34:17;1.57;85.84
71088;SHT31;58747;50.674;4.616;2023-01-24T08:36:43;1.87;87.25
71088;SHT31;58747;50.674;4.616;2023-01-24T08:39:08;1.73;85.04
71088;SHT31;58747;50.674;4.616;2023-01-24T08:41:33;1.64;85.52
71088;SHT31;58747;50.674;4.616;2023-01-24T08:43:59;1.60;85.62
71088;SHT31;58747;50.674;4.616;2023-01-24T08:46:27;1.61;86.25
71088;SHT31;58747;50.674;4.616;2023-01-24T08:48:53;1.68;85.86
71088;SHT31;58747;50.674;4.616;2023-01-24T08:51:18;1.64;86.08
71088;SHT31;58747;50.674;4.616;2023-01-24T08:53:43;1.64;85.86
71088;SHT31;58747;50.674;4.616;2023-01-24T08:56:09;1.64;85.96
71088;SHT31;58747;50.674;4.616;2023-01-24T08:58:34;1.68;85.91
71088;SHT31;58747;50.674;4.616;2023-01-24T09:01:04;1.71;84.82
71088;SHT31;58747;50.674;4.616;2023-01-24T09:03:30;1.66;85.42
71088;SHT31;58747;50.674;4.616;2023-01-24T09:05:58;1.71;85.29
71088;SHT31;58747;50.674;4.616;2023-01-24T09:08:23;1.68;85.29
71088;SHT31;58747;50.674;4.616;2023-01-24T09:10:49;1.56;85.28
71088;SHT31;58747;50.674;4.616;2023-01-24T09:13:14;1.58;85.36
71088;SHT31;58747;50.674;4.616;2023-01-24T09:15:40;1.66;85.06
71088;SHT31;58747;50.674;4.616;2023-01-24T09:18:05;1.64;85.34
71088;SHT31;58747;50.674;4.616;2023-01-24T09:20:30;1.60;85.84
71088;SHT31;58747;50.674;4.616;2023-01-24T09:22:56;1.66;85.59
71088;SHT31;58747;50.674;4.616;2023-01-24T09:25:21;1.63;85.24
71088;SHT31;58747;50.674;4.616;2023-01-24T09:27:54;1.68;85.37
71088;SHT31;58747;50.674;4.616;2023-01-24T09:30:20;1.74;85.55
71088;SHT31;58747;50.674;4.616;2023-01-24T09:32:47;1.79;85.50
71088;SHT31;58747;50.674;4.616;2023-01-24T09:35:14;1.84;85.56
71088;SHT31;58747;50.674;4.616;2023-01-24T09:37:39;1.70;84.44
71088;SHT31;58747;50.674;4.616;2023-01-24T09:40:27;1.70;84.72
71088;SHT31;58747;50.674;4.616;2023-01-24T09:43:02;1.75;85.09
71088;SHT31;58747;50.674;4.616;2023-01-24T09:45:40;1.73;84.91
71088;SHT31;58747;50.674;4.616;2023-01-24T09:48:12;1.75;84.58
71088;SHT31;58747;50.674;4.616;2023-01-24T09:50:48;1.75;84.88
71088;SHT31;58747;50.674;4.616;2023-01-24T09:53:23;1.73;84.53
71088;SHT31;58747;50.674;4.616;2023-01-24T09:55:48;1.66;84.41
71088;SHT31;58747;50.674;4.616;2023-01-24T10:00:44;1.70;84.75
71088;SHT31;58747;50.674;4.616;2023-01-24T10:03:21;1.66;84.41
71088;SHT31;58747;50.674;4.616;2023-01-24T10:05:49;1.70;84.92
71088;SHT31;58747;50.674;4.616;2023-01-24T10:08:37;1.79;84.56
71088;SHT31;58747;50.674;4.616;2023-01-24T10:11:23;1.81;84.17
71088;SHT31;58747;50.674;4.616;2023-01-24T10:22:12;1.79;84.28
71088;SHT31;58747;50.674;4.616;2023-01-24T10:24:41;1.84;84.78
71088;SHT31;58747;50.674;4.616;2023-01-24T10:27:24;1.85;84.89
71088;SHT31;58747;50.674;4.616;2023-01-24T10:29:57;1.91;84.29
71088;SHT31;58747;50.674;4.616;2023-01-24T10:32:30;2.01;84.15
71088;SHT31;58747;50.674;4.616;2023-01-24T10:34:59;1.93;83.68
71088;SHT31;58747;50.674;4.616;2023-01-24T10:37:31;1.91;83.70
71088;SHT31;58747;50.674;4.616;2023-01-24T10:39:58;1.84;84.27
71088;SHT31;58747;50.674;4.616;2023-01-24T10:42:30;1.93;84.80
71088;SHT31;58747;50.674;4.616;2023-01-24T10:45:00;1.95;83.92
71088;SHT31;58747;50.674;4.616;2023-01-24T10:50:17;1.93;84.17
71088;SHT31;58747;50.674;4.616;2023-01-24T10:52:43;1.95;83.78
71088;SHT31;58747;50.674;4.616;2023-01-24T10:57:51;2.04;84.30
71088;SHT31;58747;50.674;4.616;2023-01-24T11:00:24;2.04;83.85
71088;SHT31;58747;50.674;4.616;2023-01-24T11:02:56;2.09;83.99
71088;SHT31;58747;50.674;4.616;2023-01-24T11:05:22;2.16;83.90
71088;SHT31;58747;50.674;4.616;2023-01-24T11:07:51;2.16;83.47
71088;SHT31;58747;50.674;4.616;2023-01-24T11:10:21;2.14;83.21
71088;SHT31;58747;50.674;4.616;2023-01-24T11:12:56;2.05;84.11
71088;SHT31;58747;50.674;4.616;2023-01-24T11:15:25;1.99;83.94
71088;SHT31;58747;50.674;4.616;2023-01-24T11:17:54;2.01;83.65
71088;SHT31;58747;50.674;4.616;2023-01-24T11:20:32;2.05;83.80
71088;SHT31;58747;50.674;4.616;2023-01-24T11:23:20;2.01;83.73
71088;SHT31;58747;50.674;4.616;2023-01-24T11:26:00;2.02;84.01
71088;SHT31;58747;50.674;4.616;2023-01-24T11:28:38;2.14;84.09
71088;SHT31;58747;50.674;4.616;2023-01-24T11:31:42;2.14;83.50
71088;SHT31;58747;50.674;4.616;2023-01-24T11:39:46;2.01;83.45
71088;SHT31;58747;50.674;4.616;2023-01-24T11:59:40;2.25;83.52
71088;SHT31;58747;50.674;4.616;2023-01-24T12:02:41;2.28;83.56
71088;SHT31;58747;50.674;4.616;2023-01-24T12:10:16;2.19;82.84
71088;SHT31;58747;50.674;4.616;2023-01-24T12:13:01;2.16;83.32
71088;SHT31;58747;50.674;4.616;2023-01-24T12:18:28;2.30;83.30
71088;SHT31;58747;50.674;4.616;2023-01-24T12:21:04;2.32;83.44
71088;SHT31;58747;50.674;4.616;2023-01-24T12:24:03;2.28;82.91
71088;SHT31;58747;50.674;4.616;2023-01-24T12:26:34;2.29;82.93
71088;SHT31;58747;50.674;4.616;2023-01-24T12:31:57;2.28;82.84
71088;SHT31;58747;50.674;4.616;2023-01-24T12:34:49;2.29;82.88
71088;SHT31;58747;50.674;4.616;2023-01-24T12:42:23;2.28;83.44
71088;SHT31;58747;50.674;4.616;2023-01-24T12:44:57;2.32;83.30
71088;SHT31;58747;50.674;4.616;2023-01-24T12:47:27;2.30;83.24
71088;SHT31;58747;50.674;4.616;2023-01-24T12:50:15;2.33;83.17
71088;SHT31;58747;50.674;4.616;2023-01-24T12:55:56;2.36;82.71
71088;SHT31;58747;50.674;4.616;2023-01-24T12:58:32;2.32;82.36
71088;SHT31;58747;50.674;4.616;2023-01-24T13:01:34;2.32;82.46
71088;SHT31;58747;50.674;4.616;2023-01-24T13:04:24;2.33;82.73
71088;SHT31;58747;50.674;4.616;2023-01-24T13:07:24;2.33;82.49
71088;SHT31;58747;50.674;4.616;2023-01-24T13:10:10;2.43;82.90
71088;SHT31;58747;50.674;4.616;2023-01-24T13:12:41;2.42;82.46
71088;SHT31;58747;50.674;4.616;2023-01-24T13:34:17;2.54;83.01
71088;SHT31;58747;50.674;4.616;2023-01-24T13:36:48;2.53;82.98
71088;SHT31;58747;50.674;4.616;2023-01-24T13:42:00;2.35;82.49
71088;SHT31;58747;50.674;4.616;2023-01-24T13:44:28;2.29;82.80
71088;SHT31;58747;50.674;4.616;2023-01-24T13:47:02;2.25;82.86
71088;SHT31;58747;50.674;4.616;2023-01-24T13:51:55;2.29;83.10
71088;SHT31;58747;50.674;4.616;2023-01-24T13:54:37;2.30;82.96
71088;SHT31;58747;50.674;4.616;2023-01-24T13:59:28;2.16;82.77
71088;SHT31;58747;50.674;4.616;2023-01-24T14:01:53;2.16;82.87
71088;SHT31;58747;50.674;4.616;2023-01-24T14:04:36;2.21;82.88
71088;SHT31;58747;50.674;4.616;2023-01-24T14:07:17;2.16;82.61
71088;SHT31;58747;50.674;4.616;2023-01-24T14:09:43;2.21;83.21
71088;SHT31;58747;50.674;4.616;2023-01-24T14:12:15;2.88;84.50
71088;SHT31;58747;50.674;4.616;2023-01-24T14:17:44;2.67;81.65
71088;SHT31;58747;50.674;4.616;2023-01-24T14:20:23;2.57;82.29
71088;SHT31;58747;50.674;4.616;2023-01-24T14:22:53;2.43;82.85
71088;SHT31;58747;50.674;4.616;2023-01-24T14:25:32;2.40;82.94
71088;SHT31;58747;50.674;4.616;2023-01-24T14:28:15;2.42;83.23
71088;SHT31;58747;50.674;4.616;2023-01-24T14:30:47;2.45;83.43
71088;SHT31;58747;50.674;4.616;2023-01-24T14:33:17;2.46;83.10
71088;SHT31;58747;50.674;4.616;2023-01-24T14:35:57;2.39;82.83
71088;SHT31;58747;50.674;4.616;2023-01-24T14:38:23;2.42;83.48
71088;SHT31;58747;50.674;4.616;2023-01-24T14:40:53;2.37;83.07
71088;SHT31;58747;50.674;4.616;2023-01-24T14:43:20;2.32;82.96
71088;SHT31;58747;50.674;4.616;2023-01-24T14:45:47;2.36;83.19
71088;SHT31;58747;50.674;4.616;2023-01-24T14:48:22;2.29;82.93
71088;SHT31;58747;50.674;4.616;2023-01-24T14:51:05;2.28;82.99
71088;SHT31;58747;50.674;4.616;2023-01-24T14:53:32;2.16;83.18
71088;SHT31;58747;50.674;4.616;2023-01-24T14:56:08;2.21;82.79
71088;SHT31;58747;50.674;4.616;2023-01-24T14:58:35;2.12;82.77
71088;SHT31;58747;50.674;4.616;2023-01-24T15:01:01;2.09;83.23
71088;SHT31;58747;50.674;4.616;2023-01-24T15:03:32;2.05;83.28
71088;SHT31;58747;50.674;4.616;2023-01-24T15:06:06;2.09;83.26
71088;SHT31;58747;50.674;4.616;2023-01-24T15:08:32;2.12;83.29
71088;SHT31;58747;50.674;4.616;2023-01-24T15:11:04;2.21;83.37
71088;SHT31;58747;50.674;4.616;2023-01-24T15:13:43;2.22;84.12
71088;SHT31;58747;50.674;4.616;2023-01-24T15:16:17;2.14;83.37
71088;SHT31;58747;50.674;4.616;2023-01-24T15:18:51;2.11;83.29
71088;SHT31;58747;50.674;4.616;2023-01-24T15:21:23;2.12;83.97
71088;SHT31;58747;50.674;4.616;2023-01-24T15:23:51;2.11;83.69
71088;SHT31;58747;50.674;4.616;2023-01-24T15:26:35;2.08;83.66
71088;SHT31;58747;50.674;4.616;2023-01-24T15:34:47;2.18;83.42
71088;SHT31;58747;50.674;4.616;2023-01-24T15:37:14;2.15;84.00
71088;SHT31;58747;50.674;4.616;2023-01-24T15:39:40;2.12;83.90
71088;SHT31;58747;50.674;4.616;2023-01-24T15:42:13;2.11;83.91
71088;SHT31;58747;50.674;4.616;2023-01-24T15:44:57;2.12;83.88
71088;SHT31;58747;50.674;4.616;2023-01-24T15:47:24;2.12;84.17
71088;SHT31;58747;50.674;4.616;2023-01-24T15:55:42;2.08;83.62
71088;SHT31;58747;50.674;4.616;2023-01-24T15:58:08;2.11;84.09
71088;SHT31;58747;50.674;4.616;2023-01-24T16:00:34;1.99;83.77
71088;SHT31;58747;50.674;4.616;2023-01-24T16:03:01;1.91;83.47
71088;SHT31;58747;50.674;4.616;2023-01-24T16:05:26;1.98;84.00
71088;SHT31;58747;50.674;4.616;2023-01-24T16:07:54;1.97;83.37
71088;SHT31;58747;50.674;4.616;2023-01-24T16:10:19;1.93;83.84
71088;SHT31;58747;50.674;4.616;2023-01-24T16:12:46;1.87;84.30
71088;SHT31;58747;50.674;4.616;2023-01-24T16:15:15;1.94;84.25
71088;SHT31;58747;50.674;4.616;2023-01-24T16:17:41;1.93;84.38
71088;SHT31;58747;50.674;4.616;2023-01-24T16:20:24;1.84;84.32
71088;SHT31;58747;50.674;4.616;2023-01-24T16:22:51;1.89;84.70
71088;SHT31;58747;50.674;4.616;2023-01-24T16:25:17;1.84;84.61
71088;SHT31;58747;50.674;4.616;2023-01-24T16:27:44;1.85;84.74
71088;SHT31;58747;50.674;4.616;2023-01-24T16:30:17;1.91;84.32
71088;SHT31;58747;50.674;4.616;2023-01-24T16:32:43;1.84;84.26
71088;SHT31;58747;50.674;4.616;2023-01-24T16:35:09;1.82;84.54
71088;SHT31;58747;50.674;4.616;2023-01-24T16:37:34;1.82;85.15
71088;SHT31;58747;50.674;4.616;2023-01-24T16:39:59;1.89;84.59
71088;SHT31;58747;50.674;4.616;2023-01-24T16:42:25;1.79;83.97
71088;SHT31;58747;50.674;4.616;2023-01-24T16:44:58;1.68;84.71
71088;SHT31;58747;50.674;4.616;2023-01-24T16:47:24;1.61;84.84
71088;SHT31;58747;50.674;4.616;2023-01-24T16:49:54;1.64;85.24
71088;SHT31;58747;50.674;4.616;2023-01-24T16:52:21;1.61;84.59
71088;SHT31;58747;50.674;4.616;2023-01-24T16:54:47;1.64;85.17
71088;SHT31;58747;50.674;4.616;2023-01-24T16:57:13;1.63;84.93
71088;SHT31;58747;50.674;4.616;2023-01-24T16:59:38;1.64;84.63
71088;SHT31;58747;50.674;4.616;2023-01-24T17:02:03;1.58;85.10
71088;SHT31;58747;50.674;4.616;2023-01-24T17:04:28;1.60;85.21
71088;SHT31;58747;50.674;4.616;2023-01-24T17:06:54;1.60;85.05
71088;SHT31;58747;50.674;4.616;2023-01-24T17:09:24;1.61;85.16
71088;SHT31;58747;50.674;4.616;2023-01-24T17:11:49;1.57;85.26
71088;SHT31;58747;50.674;4.616;2023-01-24T17:14:15;1.57;85.08
71088;SHT31;58747;50.674;4.616;2023-01-24T17:16:40;1.60;85.05
71088;SHT31;58747;50.674;4.616;2023-01-24T17:19:05;1.57;85.02
71088;SHT31;58747;50.674;4.616;2023-01-24T17:21:31;1.60;85.23
71088;SHT31;58747;50.674;4.616;2023-01-24T17:23:56;1.58;85.27
71088;SHT31;58747;50.674;4.616;2023-01-24T17:26:22;1.61;84.95
71088;SHT31;58747;50.674;4.616;2023-01-24T17:28:47;1.53;84.72
71088;SHT31;58747;50.674;4.616;2023-01-24T17:31:15;1.50;84.80
71088;SHT31;58747;50.674;4.616;2023-01-24T17:33:41;1.42;84.92
71088;SHT31;58747;50.674;4.616;2023-01-24T17:36:07;1.39;85.15
71088;SHT31;58747;50.674;4.616;2023-01-24T17:38:33;1.50;85.08
71088;SHT31;58747;50.674;4.616;2023-01-24T17:40:59;1.51;84.97
71088;SHT31;58747;50.674;4.616;2023-01-24T17:43:25;1.47;84.75
71088;SHT31;58747;50.674;4.616;2023-01-24T17:45:52;1.42;84.56
71088;SHT31;58747;50.674;4.616;2023-01-24T17:48:18;1.40;84.39
71088;SHT31;58747;50.674;4.616;2023-01-24T17:50:43;1.39;84.53